Nearby METAR Reports

 

KSJC - San Jose, California, USA
Distance from station: NE 14km
Updated: 03/03/2021 11:53
Clear
Clear
 Wind from calm
Wind: Calm
Temperature: 10°C
Dew Point: 4°C
Humidity: 67%
Barometer: 1008.8 hPa
Clouds: Clear
Visibility: 16 km
2021/03/03 09:53 KSJC 030953Z AUTO 00000KT 10SM CLR 10/04 A2979 RMK AO2 SLP085 T01000044
KNUQ - Moffett Nas/Mtn, California, USA
Distance from station: N 14km
Updated: 03/03/2021 12:35
Clear
Clear
 Wind from calm
Wind: Calm
Temperature: 9°C
Dew Point: 5°C
Humidity: 76%
Barometer: 1008.1 hPa
Clouds: Clear
Visibility: 16 km
2021/03/03 10:35 KNUQ 031035Z AUTO 00000KT 10SM CLR 09/05 A2977 RMK AO2
 
KPAO - Palo Alto, California, USA
Distance from station: NNW 23km
Updated: 03/03/2021 06:47
NOT Current
Overcast
Overcast
 Wind from NW
Wind: NW 7 km/h
Temperature: 11°C
Dew Point: 7°C
Humidity: 77%
Barometer: 1010.5 hPa
Clouds: Overcast
Visibility: 16 km
Cloud details: Overcast 3048 m
2021/03/03 04:47 KPAO 030447Z 31004KT 10SM OVC100 11/07 A2984 RMK LAST
KRHV - San Jose/Reid, California, USA
Distance from station: ENE 19km
Updated: 03/03/2021 07:55
NOT Current
Mostly cloudy
Mostly cloudy
 Wind from calm
Wind: Calm
Temperature: 12°C
Dew Point: 6°C
Humidity: 67%
Barometer: 1010.5 hPa
Clouds: Mostly cloudy
Visibility: 16 km
Cloud details: Mostly cloudy 3658 m
2021/03/03 05:55 KRHV 030555Z 00000KT 10SM BKN120 12/06 A2984 RMK LAST
 
KOAK - Oakland, California, USA
Distance from station: NNW 50km
Updated: 03/03/2021 11:53
Overcast
Overcast
 Wind from E
Wind: E 6 km/h
Temperature: 11°C
Dew Point: 6°C
Humidity: 72%
Barometer: 1008.8 hPa
Clouds: Overcast
Visibility: 16 km
Cloud details: Partly cloudy 6096 m
Overcast 7620 m
2021/03/03 09:53 KOAK 030953Z 10003KT 10SM SCT200 OVC250 11/06 A2979 RMK AO2 SLP088 T01060056 $
KSQL - San Carlos Airpo, California, USA
Distance from station: NW 34km
Updated: 03/03/2021 12:35
Clear
Clear
 Wind from calm
Wind: Calm
Temperature: 9°C
Dew Point: 5°C
Humidity: 76%
Barometer: 1008.8 hPa
Clouds: Clear
Visibility: 16 km
2021/03/03 10:35 KSQL 031035Z AUTO 00000KT 10SM CLR 09/05 A2979 RMK AO2
 
KSFO - San Francisco, California, USA
Distance from station: NW 49km
Updated: 03/03/2021 11:56
Overcast
Overcast
 Wind from calm
Wind: Calm
Temperature: 12°C
Dew Point: 4°C
Humidity: 58%
Barometer: 1008.5 hPa
Clouds: Overcast
Visibility: 16 km
Cloud details: Overcast 6096 m
2021/03/03 09:56 KSFO 030956Z 00000KT 10SM OVC200 12/04 A2978 RMK AO2 SLP085 T01220039
KE16 - San Martin, California, USA
Distance from station: ESE 43km
Updated: 03/03/2021 12:35
Clear
Clear
 Wind from calm
Wind: Calm
Temperature: 7°C
Dew Point: 4°C
Humidity: 81%
Barometer: 1009.1 hPa
Clouds: Clear
Visibility: 16 km
2021/03/03 10:35 KE16 031035Z AUTO 00000KT 10SM CLR 07/04 A2980 RMK AO2 PWINO PNO
 
KWVI - Watsonville, California, USA
Distance from station: SSE 44km
Updated: 03/03/2021 11:53
Clear
Clear
 Wind from N
Wind: N 7 km/h
Temperature: 8°C
Wind Chill: 7°C
Dew Point: 4°C
Humidity: 76%
Barometer: 1009.1 hPa
Clouds: Clear
Visibility: 16 km
2021/03/03 09:53 KWVI 030953Z AUTO 35004KT 10SM CLR 08/04 A2980 RMK AO2 SLP091 T00780039
KHAF - Half Moon Bay, California, USA
Distance from station: WNW 50km
Updated: 03/03/2021 12:35
Clear
Clear
 Wind from ENE
Wind: ENE 6 km/h
Temperature: 5°C
Dew Point: 3°C
Humidity: 87%
Barometer: 1008.5 hPa
Clouds: Clear
Visibility: 11 km
2021/03/03 10:35 KHAF 031035Z AUTO 06003KT 7SM CLR 05/03 A2978 RMK AO2
 
KHWD - Hayward, California, USA
Distance from station: N 44km
Updated: 03/03/2021 11:54
Clear
Clear
 Wind from calm
Wind: Calm
Temperature: 10°C
Dew Point: 4°C
Humidity: 67%
Barometer: 1008.5 hPa
Clouds: Clear
Visibility: 16 km
2021/03/03 09:54 KHWD 030954Z 00000KT 10SM CLR 10/04 A2978 RMK AO2 SLP095 T01000039
KLVK - Livermore, California, USA
Distance from station: NNE 51km
Updated: 03/03/2021 11:53
Clear
Clear
 Wind from E
Wind: E 6 km/h
Temperature: 7°C
Dew Point: 1°C
Humidity: 66%
Barometer: 1008.5 hPa
Clouds: Clear
Visibility: 16 km
2021/03/03 09:53 KLVK 030953Z AUTO 09003KT 10SM CLR 07/01 A2978 RMK AO2 SLP081 T00720006